Butler, PA

1:34 PM EST on December 06, 2016 (GMT -0500)
Butler County-Scholter

Weather History for KBTP - January, 2014

Change the Weather History Date:

Wednesday, January 29, 2014

  Actual Average Record
Temperature  
Mean Temperature 5 °F -  
Max Temperature 15 °F 33 °F 64 °F (2002)
Min Temperature -5 °F 19 °F -10 °F (1977)
Degree Days  
Heating Degree Days 60    
Moisture  
Dew Point -7 °F    
Average Humidity 59    
Maximum Humidity 77    
Minimum Humidity 45    
Precipitation  
Precipitation 0.00 in - - ()
Sea Level Pressure  
Sea Level Pressure 30.21 in    
Wind  
Wind Speed 8 mph (SW)    
Max Wind Speed 20 mph    
Max Gust Speed 26 mph    
Visibility 10 miles    
Events      
Averages and records for this station are not official NWS values.
T = Trace of Precipitation, MM = Missing Value Source: NWS Daily Summary

Daily Weather History Graph

Daily Weather History Graph

Search for Another Location

Airport or City:

Trip Planner

Search our weather history database for the weather conditions in past years. The results will help you decide how hot, cold, wet, or windy it might be!

Date:

Astronomy

Jan. 29, 2014 Rise Set
Actual Time 7:32 AM EST 5:33 PM EST
Civil Twilight 7:03 AM EST 6:02 PM EST
Nautical Twilight 6:30 AM EST 6:35 PM EST
Astronomical Twilight 5:58 AM EST 7:08 PM EST
Moon 6:08 AM EST (1/29) 4:31 PM EST (1/29)
Length of Visible Light 10h 59m
Length of Day
10h 01m
Waning Crescent, 2% of the Moon is Illuminated
Jan 29
Waning Crescent
Jan 30
New
Feb 6
First Quarter
Feb 14
Full
Feb 22
Last Quarter

Hourly Weather History & Observations

Time (EST) Temp. Windchill Dew Point Humidity Pressure Visibility Wind Dir Wind Speed Gust Speed Precip Events Conditions
12:15 AM -2.2 °F - -11.2 °F 66% 30.21 in 10.0 mi Calm Calm - N/A   Clear
12:35 AM -2.2 °F -10.4 °F -13.0 °F 60% 30.21 in 9.0 mi SW 3.5 mph - N/A   Clear
12:55 AM -5.8 °F -14.5 °F -11.2 °F 77% 30.21 in 10.0 mi SW 3.5 mph - N/A   Clear
1:15 AM -2.2 °F -14.2 °F -11.2 °F 66% 30.21 in 10.0 mi SW 5.8 mph - N/A   Clear
1:35 AM -5.8 °F -18.4 °F -16.6 °F 60% 30.21 in 10.0 mi WSW 5.8 mph - N/A   Clear
1:55 AM -4.0 °F -17.8 °F -11.2 °F 71% 30.21 in 10.0 mi SSW 6.9 mph - N/A   Clear
2:15 AM -4.0 °F -16.3 °F -11.2 °F 71% 30.21 in 10.0 mi SW 5.8 mph - N/A   Clear
2:35 AM -4.0 °F -17.8 °F -11.2 °F 71% 30.20 in 10.0 mi SW 6.9 mph - N/A   Clear
2:55 AM -4.0 °F -17.8 °F -14.8 °F 60% 30.20 in 10.0 mi SW 6.9 mph - N/A   Clear
3:15 AM -4.0 °F -16.3 °F -13.0 °F 65% 30.20 in 10.0 mi SSW 5.8 mph - N/A   Clear
3:35 AM -5.8 °F -16.7 °F -14.8 °F 65% 30.19 in 10.0 mi SW 4.6 mph - N/A   Clear
3:55 AM -5.8 °F -18.4 °F -13.0 °F 71% 30.18 in 10.0 mi SSW 5.8 mph - N/A   Clear
4:15 AM -5.8 °F -16.7 °F -13.0 °F 71% 30.18 in 10.0 mi SSW 4.6 mph - N/A   Clear
4:35 AM -5.8 °F -18.4 °F -14.8 °F 65% 30.17 in 10.0 mi SSW 5.8 mph - N/A   Clear
4:55 AM -5.8 °F -14.5 °F -13.0 °F 71% 30.18 in 10.0 mi SSW 3.5 mph - N/A   Clear
5:15 AM -5.8 °F -16.7 °F -14.8 °F 65% 30.18 in 10.0 mi SSW 4.6 mph - N/A   Clear
5:35 AM -5.8 °F -16.7 °F -14.8 °F 65% 30.19 in 10.0 mi SW 4.6 mph - N/A   Clear
5:55 AM -5.8 °F -16.7 °F -14.8 °F 65% 30.18 in 10.0 mi SSW 4.6 mph - N/A   Clear
6:15 AM -5.8 °F -18.4 °F -14.8 °F 65% 30.18 in 10.0 mi SSW 5.8 mph - N/A   Clear
6:35 AM -5.8 °F -16.7 °F -13.0 °F 71% 30.18 in 10.0 mi SSW 4.6 mph - N/A   Clear
6:55 AM -5.8 °F -16.7 °F -13.0 °F 71% 30.18 in 10.0 mi SSW 4.6 mph - N/A   Clear
7:15 AM -5.8 °F -19.9 °F -11.2 °F 77% 30.18 in 10.0 mi SSW 6.9 mph - N/A   Clear
7:35 AM -5.8 °F -19.9 °F -13.0 °F 71% 30.18 in 10.0 mi SSW 6.9 mph - N/A   Clear
7:55 AM -4.0 °F -17.8 °F - N/A% 30.18 in 10.0 mi SSW 6.9 mph - N/A   Clear
8:15 AM -2.2 °F -16.8 °F -9.4 °F 71% 30.18 in 10.0 mi SSW 8.1 mph - N/A   Clear
8:35 AM -2.2 °F -18.0 °F -9.4 °F 71% 30.19 in 10.0 mi SSW 9.2 mph - N/A   Clear
8:55 AM -0.4 °F -15.7 °F -7.6 °F 72% 30.20 in 10.0 mi SSW 9.2 mph - N/A   Clear
9:15 AM -0.4 °F -16.7 °F -9.4 °F 66% 30.20 in 10.0 mi SSW 10.4 mph - N/A   Clear
9:35 AM 1.4 °F -15.3 °F -7.6 °F 66% 30.21 in 10.0 mi SSW 11.5 mph 16.1 mph N/A   Clear
9:55 AM 3.2 °F -11.3 °F -7.6 °F 61% 30.22 in 10.0 mi SSW 9.2 mph 18.4 mph N/A   Clear
10:15 AM 3.2 °F -14.6 °F -5.8 °F 66% 30.22 in 10.0 mi SSW 13.8 mph 24.2 mph N/A   Clear
10:35 AM 5.0 °F -10.0 °F -7.6 °F 56% 30.22 in 10.0 mi SSW 10.4 mph - N/A   Clear
10:55 AM 6.8 °F -10.0 °F -5.8 °F 56% 30.23 in 10.0 mi SW 13.8 mph 18.4 mph N/A   Clear
11:15 AM 6.8 °F -11.3 °F -5.8 °F 56% 30.22 in 10.0 mi SSW 16.1 mph - N/A   Clear
11:35 AM 8.6 °F -7.7 °F -4.0 °F 57% 30.21 in 10.0 mi SSW 13.8 mph 20.7 mph N/A   Clear
11:55 AM 10.4 °F -6.6 °F -4.0 °F 52% 30.21 in 10.0 mi SW 16.1 mph 21.9 mph N/A   Clear
12:15 PM 10.4 °F -6.6 °F -4.0 °F 52% 30.19 in 10.0 mi SW 16.1 mph - N/A   Clear
12:35 PM 10.4 °F -8.2 °F -2.2 °F 57% 30.19 in 10.0 mi SW 19.6 mph 25.3 mph N/A   Clear
12:55 PM 10.4 °F -5.4 °F -2.2 °F 57% 30.18 in 10.0 mi SSW 13.8 mph 19.6 mph N/A   Clear
1:15 PM 12.2 °F -3.1 °F -2.2 °F 53% 30.17 in 10.0 mi WSW 13.8 mph 19.6 mph N/A   Clear
1:35 PM 12.2 °F -5.8 °F -4.0 °F 48% 30.16 in 10.0 mi SW 19.6 mph 26.5 mph N/A   Clear
1:55 PM 12.2 °F -4.8 °F -2.2 °F 53% 30.16 in 10.0 mi SSW 17.3 mph 26.5 mph N/A   Clear
2:15 PM 12.2 °F -3.1 °F -2.2 °F 53% 30.16 in 10.0 mi SSW 13.8 mph 20.7 mph N/A   Clear
2:35 PM 14.0 °F -3.0 °F -2.2 °F 49% 30.16 in 10.0 mi SW 18.4 mph 25.3 mph N/A   Clear
2:55 PM 14.0 °F -2.0 °F -2.2 °F 49% 30.17 in 10.0 mi SW 16.1 mph 21.9 mph N/A   Clear
3:15 PM 14.0 °F -1.4 °F -2.2 °F 49% 30.17 in 10.0 mi SW 15.0 mph 23.0 mph N/A   Clear
3:35 PM 14.0 °F -2.0 °F -2.2 °F 49% 30.17 in 10.0 mi SSW 16.1 mph - N/A   Clear
3:55 PM 14.0 °F -0.8 °F -2.2 °F 49% 30.17 in 10.0 mi SSW 13.8 mph - N/A   Clear
4:15 PM 15.8 °F -0.2 °F -2.2 °F 45% 30.18 in 10.0 mi SW 17.3 mph 21.9 mph N/A   Clear
4:35 PM 15.8 °F 2.1 °F -2.2 °F 45% 30.18 in 10.0 mi SW 12.7 mph 20.7 mph N/A   Clear
4:55 PM 15.8 °F 0.3 °F -2.2 °F 45% 30.19 in 10.0 mi SW 16.1 mph 21.9 mph N/A   Clear
5:15 PM 14.0 °F -2.0 °F -4.0 °F 45% 30.20 in 10.0 mi SW 16.1 mph 20.7 mph N/A   Clear
5:35 PM 14.0 °F -0.8 °F -4.0 °F 45% 30.20 in 10.0 mi SW 13.8 mph - N/A   Clear
5:55 PM 12.2 °F -2.5 °F -4.0 °F 48% 30.20 in 10.0 mi SW 12.7 mph - N/A   Clear
6:15 PM 12.2 °F -1.0 °F -4.0 °F 48% 30.22 in 10.0 mi SW 10.4 mph - N/A   Clear
6:35 PM 12.2 °F -0.2 °F -4.0 °F 48% 30.22 in 10.0 mi SW 9.2 mph - N/A   Clear
6:55 PM 12.2 °F 2.9 °F -4.0 °F 48% 30.23 in 10.0 mi WSW 5.8 mph - N/A   Clear
7:15 PM 12.2 °F 0.7 °F -4.0 °F 48% 30.24 in 10.0 mi SW 8.1 mph - N/A   Clear
7:35 PM 10.4 °F -1.5 °F -4.0 °F 52% 30.24 in 10.0 mi SW 8.1 mph - N/A   Clear
7:55 PM 10.4 °F -1.5 °F -2.2 °F 57% 30.25 in 10.0 mi SW 8.1 mph - N/A   Clear
8:15 PM 10.4 °F -1.5 °F -4.0 °F 52% 30.26 in 10.0 mi SSW 8.1 mph - N/A   Clear
8:35 PM 10.4 °F -2.4 °F -2.2 °F 57% 30.26 in 10.0 mi SSW 9.2 mph - N/A   Clear
8:55 PM 10.4 °F 0.8 °F -4.0 °F 52% 30.26 in 10.0 mi SSW 5.8 mph - N/A   Clear
9:15 PM 10.4 °F -1.5 °F -2.2 °F 57% 30.26 in 10.0 mi SSW 8.1 mph - N/A   Clear
9:35 PM 10.4 °F -0.4 °F -4.0 °F 52% 30.26 in 10.0 mi SSW 6.9 mph - N/A   Clear
9:55 PM 10.4 °F -3.3 °F -2.2 °F 57% 30.27 in 10.0 mi SW 10.4 mph - N/A   Clear
10:15 PM 10.4 °F -2.4 °F -2.2 °F 57% 30.27 in 10.0 mi SSW 9.2 mph - N/A   Clear
10:35 PM 10.4 °F -1.5 °F -2.2 °F 57% 30.28 in 10.0 mi SSW 8.1 mph - N/A   Clear
10:55 PM 10.4 °F -0.4 °F -2.2 °F 57% 30.27 in 10.0 mi SSW 6.9 mph - N/A   Clear
11:15 PM 10.4 °F -0.4 °F -2.2 °F 57% 30.28 in 10.0 mi South 6.9 mph - N/A   Clear
11:35 PM 8.6 °F -1.3 °F -4.0 °F 57% 30.28 in 10.0 mi South 5.8 mph - N/A   Clear
11:55 PM 8.6 °F -2.6 °F -4.0 °F 57% 30.28 in 10.0 mi South 6.9 mph - N/A   Clear